createdAt,value
2019-05-21T00:00:58.544Z,92.50
2019-05-21T00:03:26.982Z,92.50
2019-05-21T00:05:55.427Z,92.60
2019-05-21T00:08:23.875Z,92.50
2019-05-21T00:10:52.331Z,92.60
2019-05-21T00:13:20.839Z,92.60
2019-05-21T00:15:49.288Z,92.60
2019-05-21T00:18:19.396Z,92.80
2019-05-21T00:20:47.842Z,92.60
2019-05-21T00:23:16.292Z,92.60
2019-05-21T00:25:44.727Z,92.70
2019-05-21T00:28:34.634Z,92.70
2019-05-21T00:31:41.607Z,92.70
2019-05-21T00:34:46.443Z,92.70
2019-05-21T00:37:51.434Z,92.60
2019-05-21T00:40:56.352Z,92.60
2019-05-21T00:43:33.701Z,92.70
2019-05-21T00:46:02.151Z,92.60
2019-05-21T00:48:33.940Z,92.50
2019-05-21T00:51:02.387Z,92.60
2019-05-21T00:53:30.831Z,92.60
2019-05-21T00:55:59.344Z,92.60
2019-05-21T00:58:27.821Z,92.70
2019-05-21T01:00:56.255Z,92.60
2019-05-21T01:03:24.779Z,92.60
2019-05-21T01:05:53.224Z,92.70
2019-05-21T01:08:21.680Z,92.70
2019-05-21T01:10:50.115Z,92.80
2019-05-21T01:13:18.595Z,92.80
2019-05-21T01:15:47.030Z,92.80
2019-05-21T01:18:15.498Z,92.90
2019-05-21T01:20:43.945Z,92.90
2019-05-21T01:23:12.401Z,92.90
2019-05-21T01:25:40.843Z,92.90
2019-05-21T01:28:09.293Z,92.80
2019-05-21T01:30:38.797Z,92.90
2019-05-21T01:33:07.240Z,92.90
2019-05-21T01:35:35.690Z,93.20
2019-05-21T01:38:04.140Z,92.90
2019-05-21T01:40:32.658Z,92.90
2019-05-21T01:43:03.314Z,92.90
2019-05-21T01:45:31.287Z,92.90
2019-05-21T01:48:02.466Z,92.80
2019-05-21T01:50:30.908Z,93.20
2019-05-21T01:52:59.359Z,92.80
2019-05-21T01:55:27.810Z,92.90
2019-05-21T01:57:56.246Z,92.90
2019-05-21T02:00:24.700Z,92.90
2019-05-21T02:02:53.140Z,92.90
2019-05-21T02:05:32.618Z,92.90
2019-05-21T02:07:58.842Z,93.00
2019-05-21T02:10:27.384Z,92.90
2019-05-21T02:12:58.984Z,93.00
2019-05-21T02:15:27.436Z,93.00
2019-05-21T02:17:55.876Z,92.90
2019-05-21T02:20:24.329Z,93.00
2019-05-21T02:22:52.776Z,93.00
2019-05-21T02:25:21.211Z,93.00
2019-05-21T02:27:49.665Z,93.10
2019-05-21T02:30:19.908Z,93.20
2019-05-21T02:32:54.421Z,93.20
2019-05-21T02:35:22.931Z,93.20
2019-05-21T02:37:52.651Z,93.20
2019-05-21T02:40:22.941Z,93.10
2019-05-21T02:42:51.497Z,93.20
2019-05-21T02:45:20.158Z,93.30
2019-05-21T02:47:48.602Z,93.30
2019-05-21T02:50:17.197Z,93.30
2019-05-21T02:52:45.738Z,93.30
2019-05-21T02:55:14.320Z,93.30
2019-05-21T02:57:42.790Z,93.30
2019-05-21T03:00:38.737Z,93.30
2019-05-21T03:03:14.361Z,93.30
2019-05-21T03:05:42.819Z,93.40
2019-05-21T03:08:11.343Z,93.30
2019-05-21T03:10:39.806Z,93.40
2019-05-21T03:13:08.332Z,93.40
2019-05-21T03:15:36.781Z,93.30
2019-05-21T03:18:05.295Z,93.40
2019-05-21T03:20:53.172Z,93.40
2019-05-21T03:23:21.697Z,93.40
2019-05-21T03:25:50.130Z,93.40
2019-05-21T03:28:18.590Z,93.40
2019-05-21T03:30:47.112Z,93.40
2019-05-21T03:33:15.630Z,93.40
2019-05-21T03:35:44.193Z,93.40
2019-05-21T03:38:12.703Z,93.40
2019-05-21T03:40:41.153Z,93.50
2019-05-21T03:43:09.605Z,93.50
2019-05-21T03:45:38.072Z,93.50
2019-05-21T03:48:06.507Z,93.50
2019-05-21T03:50:34.963Z,93.50
2019-05-21T03:53:03.431Z,93.60
2019-05-21T03:55:31.935Z,93.60
2019-05-21T03:58:00.396Z,93.60
2019-05-21T04:00:28.904Z,93.60
2019-05-21T04:02:57.352Z,93.60
2019-05-21T04:05:26.548Z,93.50
2019-05-21T04:07:55.072Z,93.60
2019-05-21T04:10:23.658Z,93.60
2019-05-21T04:13:08.030Z,94.00
2019-05-21T04:15:40.137Z,93.80
2019-05-21T04:18:16.161Z,93.70
2019-05-21T04:20:44.669Z,93.70
2019-05-21T04:23:20.493Z,93.70
2019-05-21T04:25:48.945Z,93.80
2019-05-21T04:28:17.388Z,93.80
2019-05-21T04:30:45.857Z,93.80
2019-05-21T04:33:14.307Z,93.80
2019-05-21T04:35:42.752Z,93.80
2019-05-21T04:38:11.208Z,93.80
2019-05-21T04:40:41.024Z,93.80
2019-05-21T04:43:09.504Z,93.80
2019-05-21T04:45:37.968Z,93.80
2019-05-21T04:48:06.432Z,93.80
2019-05-21T04:50:34.888Z,93.70
2019-05-21T04:53:03.341Z,93.60
2019-05-21T04:55:31.853Z,93.70
2019-05-21T04:58:00.291Z,93.70
2019-05-21T05:00:28.735Z,93.70
2019-05-21T05:02:57.186Z,93.70
2019-05-21T05:05:27.633Z,93.80
2019-05-21T05:07:55.798Z,94.10
2019-05-21T05:10:24.273Z,93.80
2019-05-21T05:12:53.688Z,93.80
2019-05-21T05:15:22.143Z,93.80
2019-05-21T05:17:51.958Z,93.70
2019-05-21T05:20:20.416Z,93.80
2019-05-21T05:22:48.849Z,93.80
2019-05-21T05:25:17.371Z,93.80
2019-05-21T05:27:46.808Z,93.80
2019-05-21T05:30:16.313Z,93.80
2019-05-21T05:32:44.766Z,93.80
2019-05-21T05:35:13.262Z,93.80
2019-05-21T05:37:45.166Z,93.80
2019-05-21T05:40:12.884Z,93.80
2019-05-21T05:42:41.364Z,93.90
2019-05-21T05:45:10.352Z,93.70
2019-05-21T05:47:38.804Z,93.80
2019-05-21T05:50:09.500Z,93.80
2019-05-21T05:52:41.804Z,93.90
2019-05-21T05:55:10.429Z,93.80
2019-05-21T05:57:38.872Z,93.70
2019-05-21T06:00:09.937Z,93.60
2019-05-21T06:02:38.378Z,93.60
2019-05-21T06:05:07.768Z,93.60
2019-05-21T06:07:36.211Z,93.70
2019-05-21T06:10:06.496Z,93.70
2019-05-21T06:12:35.025Z,93.70
2019-05-21T06:15:04.180Z,93.70
2019-05-21T06:17:32.664Z,93.50
2019-05-21T06:20:01.106Z,93.50
2019-05-21T06:22:29.558Z,93.40
2019-05-21T06:24:58.018Z,93.40
2019-05-21T06:27:26.469Z,93.50
2019-05-21T06:29:54.893Z,93.60
2019-05-21T06:32:23.360Z,93.60
2019-05-21T06:34:51.804Z,93.60
2019-05-21T06:37:20.249Z,93.50
2019-05-21T06:39:48.699Z,93.50
2019-05-21T06:42:17.133Z,93.40
2019-05-21T06:44:45.588Z,93.40
2019-05-21T06:47:14.072Z,93.40
2019-05-21T06:49:42.554Z,93.40
2019-05-21T06:52:11.018Z,93.50
2019-05-21T06:54:39.458Z,93.50
2019-05-21T06:57:07.914Z,93.50
2019-05-21T06:59:36.429Z,93.60
2019-05-21T07:02:04.984Z,93.40
2019-05-21T07:04:33.460Z,93.40
2019-05-21T07:07:01.917Z,93.30
2019-05-21T07:09:30.426Z,93.30
2019-05-21T07:11:58.876Z,93.30
2019-05-21T07:14:27.312Z,93.40
2019-05-21T07:16:55.774Z,93.10
2019-05-21T07:19:24.234Z,93.00
2019-05-21T07:21:52.672Z,93.00
2019-05-21T07:24:21.183Z,93.00
2019-05-21T07:26:49.647Z,92.90
2019-05-21T07:29:18.160Z,92.70
2019-05-21T07:31:46.620Z,92.70
2019-05-21T07:34:15.111Z,92.50
2019-05-21T07:36:43.564Z,92.40
2019-05-21T07:39:12.000Z,92.40
2019-05-21T07:41:40.466Z,92.20
2019-05-21T07:44:08.981Z,92.30
2019-05-21T07:46:39.809Z,92.30
2019-05-21T07:49:07.613Z,92.30
2019-05-21T07:51:36.124Z,92.30
2019-05-21T07:54:05.042Z,92.50
2019-05-21T07:56:33.545Z,92.60
2019-05-21T07:59:02.328Z,92.60
2019-05-21T08:01:30.852Z,92.50
2019-05-21T08:03:59.304Z,92.40
2019-05-21T08:06:30.577Z,92.40
2019-05-21T08:09:12.318Z,92.40
2019-05-21T08:11:29.200Z,92.50
2019-05-21T08:13:57.824Z,92.40
2019-05-21T08:16:26.276Z,92.30
2019-05-21T08:18:54.720Z,92.30
2019-05-21T08:21:23.179Z,92.50
2019-05-21T08:23:51.644Z,92.40
2019-05-21T08:26:20.087Z,92.40
2019-05-21T08:28:48.572Z,92.30
2019-05-21T08:31:17.063Z,92.40
2019-05-21T08:33:45.521Z,92.40
2019-05-21T08:36:14.046Z,92.80
2019-05-21T08:38:44.048Z,92.40
2019-05-21T08:41:12.477Z,92.40
2019-05-21T08:43:40.930Z,92.30
2019-05-21T08:46:09.371Z,92.20
2019-05-21T08:48:37.825Z,92.20
2019-05-21T08:51:06.292Z,92.10
2019-05-21T08:53:34.730Z,92.30
2019-05-21T08:56:03.184Z,92.30
2019-05-21T08:58:31.654Z,92.10
2019-05-21T09:01:00.119Z,92.20
2019-05-21T09:03:28.565Z,92.10
2019-05-21T09:05:57.024Z,91.90
2019-05-21T09:08:25.464Z,91.90
2019-05-21T09:10:53.905Z,91.90
2019-05-21T09:13:22.357Z,91.90
2019-05-21T09:15:50.808Z,91.90
2019-05-21T09:18:19.261Z,91.90
2019-05-21T09:20:47.720Z,91.80
2019-05-21T09:23:16.175Z,91.50
2019-05-21T09:25:44.618Z,91.50
2019-05-21T09:28:13.061Z,91.70
2019-05-21T09:30:41.504Z,91.80
2019-05-21T09:33:09.958Z,91.60
2019-05-21T09:35:38.405Z,91.50
2019-05-21T09:38:06.848Z,91.20
2019-05-21T09:40:35.287Z,91.20
2019-05-21T09:43:03.718Z,91.30
2019-05-21T09:45:32.173Z,91.30
2019-05-21T09:48:00.637Z,91.30
2019-05-21T09:50:29.155Z,91.30
2019-05-21T09:52:57.692Z,91.20
2019-05-21T09:55:26.122Z,90.90
2019-05-21T09:57:56.225Z,90.90
2019-05-21T10:00:43.507Z,90.90
2019-05-21T10:03:13.593Z,90.80
2019-05-21T10:05:42.098Z,90.60
2019-05-21T10:08:10.609Z,90.70
2019-05-21T10:10:39.087Z,90.50
2019-05-21T10:13:07.584Z,90.30
2019-05-21T10:15:36.036Z,90.30
2019-05-21T10:18:05.646Z,90.40
2019-05-21T10:20:40.342Z,90.60
2019-05-21T10:23:08.828Z,90.30
2019-05-21T10:25:37.333Z,90.30
2019-05-21T10:28:05.836Z,90.30
2019-05-21T10:30:34.267Z,90.70
2019-05-21T10:33:02.719Z,90.00
2019-05-21T10:35:31.238Z,89.40
2019-05-21T10:37:59.772Z,88.90
2019-05-21T10:40:28.202Z,88.80
2019-05-21T10:42:56.648Z,88.20
2019-05-21T10:45:25.097Z,87.90
2019-05-21T10:47:53.566Z,88.20
2019-05-21T10:50:22.013Z,87.10
2019-05-21T10:52:50.439Z,86.20
2019-05-21T10:55:18.896Z,84.60
2019-05-21T10:57:47.379Z,85.00
2019-05-21T11:00:23.063Z,82.90
2019-05-21T11:03:06.773Z,82.90
2019-05-21T11:05:37.030Z,81.40
2019-05-21T11:08:23.502Z,81.20
2019-05-21T11:10:36.890Z,82.20
2019-05-21T11:13:05.315Z,81.40
2019-05-21T11:15:33.926Z,81.50
2019-05-21T11:18:10.683Z,81.40
2019-05-21T11:20:32.533Z,81.10
2019-05-21T11:23:01.054Z,79.70
2019-05-21T11:25:29.491Z,80.00
2019-05-21T11:27:57.935Z,78.80
2019-05-21T11:30:26.457Z,77.20
2019-05-21T11:32:54.888Z,76.50
2019-05-21T11:35:25.332Z,75.70
2019-05-21T11:37:53.492Z,75.30
2019-05-21T11:40:23.863Z,74.20
2019-05-21T11:42:53.068Z,73.90
2019-05-21T11:45:31.551Z,73.40
2019-05-21T11:47:54.601Z,71.80
2019-05-21T11:50:22.673Z,70.50
2019-05-21T11:52:51.171Z,70.10
2019-05-21T11:55:19.664Z,70.30
2019-05-21T11:57:48.134Z,70.70
2019-05-21T12:00:21.461Z,70.80
2019-05-21T12:02:48.835Z,69.90
2019-05-21T12:05:17.375Z,69.50
2019-05-21T12:07:45.816Z,68.80
2019-05-21T12:10:20.164Z,69.10
2019-05-21T12:12:48.604Z,68.80
2019-05-21T12:15:17.591Z,68.90
2019-05-21T12:17:46.043Z,70.00
2019-05-21T12:20:15.380Z,68.80
2019-05-21T12:22:43.847Z,68.50
2019-05-21T12:25:12.591Z,67.20
2019-05-21T12:27:41.020Z,66.50
2019-05-21T12:30:09.808Z,65.60
2019-05-21T12:32:38.265Z,64.40
2019-05-21T12:35:07.747Z,63.40
2019-05-21T12:37:36.209Z,63.60
2019-05-21T12:40:08.140Z,63.50
2019-05-21T12:42:36.575Z,63.70
2019-05-21T12:45:06.348Z,63.50
2019-05-21T12:47:34.847Z,63.90
2019-05-21T12:50:04.159Z,63.80
2019-05-21T12:52:33.916Z,64.00
2019-05-21T12:55:02.775Z,64.10
2019-05-21T12:57:31.206Z,64.20
2019-05-21T12:59:59.671Z,64.20
2019-05-21T13:02:28.117Z,64.40
2019-05-21T13:04:56.568Z,64.60
2019-05-21T13:07:25.055Z,64.50
2019-05-21T13:09:53.544Z,64.10
2019-05-21T13:12:21.990Z,63.70
2019-05-21T13:14:50.456Z,63.70
2019-05-21T13:17:19.039Z,64.50
2019-05-21T13:19:48.504Z,64.80
2019-05-21T13:22:16.937Z,64.90
2019-05-21T13:24:45.413Z,64.80
2019-05-21T13:27:13.935Z,64.80
2019-05-21T13:29:42.497Z,65.60
2019-05-21T13:32:10.969Z,65.20
2019-05-21T13:34:39.423Z,64.60
2019-05-21T13:37:07.880Z,63.90
2019-05-21T13:39:48.815Z,64.00
2019-05-21T13:42:06.612Z,63.30
2019-05-21T13:44:35.149Z,63.30
2019-05-21T13:47:03.901Z,63.40
2019-05-21T13:49:32.544Z,62.90
2019-05-21T13:52:01.006Z,63.10
2019-05-21T13:54:29.460Z,63.60
2019-05-21T13:56:57.919Z,63.60
2019-05-21T13:59:26.429Z,63.50
2019-05-21T14:01:55.024Z,62.60
2019-05-21T14:04:23.572Z,61.60
2019-05-21T14:06:52.004Z,61.50
2019-05-21T14:09:20.541Z,62.40
2019-05-21T14:11:49.964Z,62.60
2019-05-21T14:14:18.480Z,62.10
2019-05-21T14:16:46.932Z,62.10
2019-05-21T14:19:15.394Z,62.20
2019-05-21T14:21:43.931Z,62.40
2019-05-21T14:24:12.368Z,61.80
2019-05-21T14:26:41.563Z,61.40
2019-05-21T14:29:10.013Z,61.90
2019-05-21T14:31:38.456Z,62.70
2019-05-21T14:34:06.946Z,63.00
2019-05-21T14:36:35.467Z,63.80
2019-05-21T14:39:07.104Z,63.50
2019-05-21T14:41:35.558Z,64.30
2019-05-21T14:44:04.804Z,64.30
2019-05-21T14:46:33.239Z,64.10
2019-05-21T14:49:01.782Z,63.90
2019-05-21T14:51:30.206Z,64.10
2019-05-21T14:54:00.303Z,64.80
2019-05-21T14:56:28.832Z,65.20
2019-05-21T14:58:57.269Z,65.20
2019-05-21T15:01:25.723Z,65.90
2019-05-21T15:03:54.283Z,65.70
2019-05-21T15:06:23.173Z,66.00
2019-05-21T15:08:52.404Z,66.70
2019-05-21T15:11:20.852Z,66.60
2019-05-21T15:13:49.300Z,67.30
2019-05-21T15:16:17.749Z,67.70
2019-05-21T15:18:46.209Z,67.60
2019-05-21T15:21:16.313Z,68.40
2019-05-21T15:23:45.696Z,68.30
2019-05-21T15:26:14.953Z,69.00
2019-05-21T15:28:43.487Z,69.00
2019-05-21T15:31:11.919Z,68.60
2019-05-21T15:33:40.401Z,68.40
2019-05-21T15:36:08.915Z,67.70
2019-05-21T15:38:49.494Z,67.90
2019-05-21T15:41:12.051Z,67.50
2019-05-21T15:43:37.695Z,66.20
2019-05-21T15:46:06.198Z,66.20
2019-05-21T15:48:34.667Z,66.40
2019-05-21T15:51:03.111Z,66.70
2019-05-21T15:53:31.575Z,66.60
2019-05-21T15:56:00.095Z,67.10
2019-05-21T15:58:28.620Z,67.10
2019-05-21T16:00:57.179Z,67.40
2019-05-21T16:03:25.711Z,67.70
2019-05-21T16:05:54.211Z,67.80
2019-05-21T16:08:22.759Z,67.50
2019-05-21T16:10:51.277Z,67.00
2019-05-21T16:13:19.740Z,67.60
2019-05-21T16:15:48.200Z,68.10
2019-05-21T16:18:16.724Z,68.70
2019-05-21T16:20:45.253Z,68.50
2019-05-21T16:23:13.770Z,68.50
2019-05-21T16:25:42.228Z,68.40
2019-05-21T16:28:10.670Z,69.30
2019-05-21T16:30:39.132Z,69.10
2019-05-21T16:33:10.556Z,69.30
2019-05-21T16:35:40.615Z,69.70
2019-05-21T16:38:09.194Z,69.40
2019-05-21T16:40:37.760Z,69.50
2019-05-21T16:43:06.243Z,69.30
2019-05-21T16:45:34.731Z,69.20
2019-05-21T16:48:03.205Z,68.90
2019-05-21T16:50:31.784Z,68.60
2019-05-21T16:53:00.423Z,68.40
2019-05-21T16:55:28.876Z,68.40
2019-05-21T16:57:57.417Z,68.90
2019-05-21T17:00:27.732Z,69.60
2019-05-21T17:02:56.328Z,69.60
2019-05-21T17:05:24.779Z,69.90
2019-05-21T17:07:53.222Z,70.20
2019-05-21T17:10:21.718Z,70.40
2019-05-21T17:12:50.195Z,70.50
2019-05-21T17:15:18.988Z,70.40
2019-05-21T17:17:47.432Z,70.30
2019-05-21T17:20:16.137Z,69.80
2019-05-21T17:22:44.579Z,69.90
2019-05-21T17:25:13.363Z,70.10
2019-05-21T17:27:41.807Z,71.00
2019-05-21T17:30:11.084Z,71.20
2019-05-21T17:32:39.602Z,71.50
2019-05-21T17:35:08.593Z,71.90
2019-05-21T17:37:37.105Z,72.20
2019-05-21T17:40:06.310Z,72.60
2019-05-21T17:42:34.827Z,72.60
2019-05-21T17:45:05.249Z,72.30
2019-05-21T17:47:33.691Z,72.80
2019-05-21T17:50:02.212Z,73.00
2019-05-21T17:52:30.884Z,72.80
2019-05-21T17:54:59.341Z,73.00
2019-05-21T17:57:28.634Z,72.90
2019-05-21T17:59:57.107Z,73.00
2019-05-21T18:02:27.262Z,73.40
2019-05-21T18:04:58.253Z,74.00
2019-05-21T18:07:27.808Z,74.30
2019-05-21T18:09:56.418Z,74.60
2019-05-21T18:12:32.057Z,74.80
2019-05-21T18:14:56.302Z,75.10
2019-05-21T18:17:25.236Z,75.20
2019-05-21T18:19:54.222Z,75.70
2019-05-21T18:22:23.356Z,75.30
2019-05-21T18:24:52.332Z,75.50
2019-05-21T18:27:49.289Z,75.90
2019-05-21T18:30:18.503Z,76.10
2019-05-21T18:32:47.533Z,76.40
2019-05-21T18:35:17.031Z,76.30
2019-05-21T18:37:45.649Z,76.60
2019-05-21T18:40:17.011Z,76.90
2019-05-21T18:42:45.519Z,76.80
2019-05-21T18:45:14.217Z,77.20
2019-05-21T18:47:42.674Z,77.70
2019-05-21T18:50:11.561Z,78.30
2019-05-21T18:52:40.092Z,78.50
2019-05-21T18:55:08.759Z,78.90
2019-05-21T18:57:38.204Z,79.10
2019-05-21T19:00:08.743Z,79.70
2019-05-21T19:02:37.381Z,79.90
2019-05-21T19:05:07.254Z,80.20
2019-05-21T19:07:35.769Z,80.00
2019-05-21T19:10:09.136Z,80.40
2019-05-21T19:12:38.898Z,80.80
2019-05-21T19:15:08.358Z,81.10
2019-05-21T19:17:36.884Z,81.40
2019-05-21T19:20:09.075Z,81.60
2019-05-21T19:22:37.545Z,82.40
2019-05-21T19:25:08.155Z,82.40
2019-05-21T19:27:36.723Z,82.90
2019-05-21T19:30:10.116Z,83.00
2019-05-21T19:32:38.572Z,83.20
2019-05-21T19:35:08.428Z,83.50
2019-05-21T19:37:36.883Z,83.50
2019-05-21T19:40:07.353Z,83.70
2019-05-21T19:42:35.818Z,84.40
2019-05-21T19:45:06.306Z,84.70
2019-05-21T19:47:34.891Z,84.90
2019-05-21T19:50:04.701Z,85.10
2019-05-21T19:52:33.150Z,85.30
2019-05-21T19:55:01.915Z,85.40
2019-05-21T19:57:30.922Z,85.70
2019-05-21T19:59:59.368Z,85.90
2019-05-21T20:02:29.463Z,85.60
2019-05-21T20:04:58.857Z,85.80
2019-05-21T20:07:27.739Z,85.90
2019-05-21T20:09:56.642Z,85.90
2019-05-21T20:12:26.033Z,85.60
2019-05-21T20:14:55.128Z,85.60
2019-05-21T20:17:25.373Z,85.20
2019-05-21T20:19:53.963Z,85.30
2019-05-21T20:22:25.682Z,85.40
2019-05-21T20:24:52.732Z,85.30
2019-05-21T20:27:21.919Z,85.20
2019-05-21T20:29:50.748Z,85.10
2019-05-21T20:32:20.845Z,85.00
2019-05-21T20:34:51.190Z,85.10
2019-05-21T20:37:21.493Z,85.30
2019-05-21T20:39:51.744Z,85.30
2019-05-21T20:42:22.076Z,85.50
2019-05-21T20:44:50.516Z,85.30
2019-05-21T20:47:18.970Z,85.20
2019-05-21T20:49:48.837Z,85.50
2019-05-21T20:52:18.910Z,85.50
2019-05-21T20:54:47.562Z,85.60
2019-05-21T20:57:16.801Z,85.70
2019-05-21T20:59:45.251Z,85.80
2019-05-21T21:02:14.307Z,85.80
2019-05-21T21:04:42.941Z,85.90
2019-05-21T21:07:11.438Z,86.00
2019-05-21T21:09:40.038Z,86.20
2019-05-21T21:12:09.517Z,86.10
2019-05-21T21:14:39.408Z,86.40
2019-05-21T21:17:09.968Z,86.70
2019-05-21T21:19:39.439Z,87.40
2019-05-21T21:22:07.994Z,86.80
2019-05-21T21:24:36.588Z,87.70
2019-05-21T21:27:07.927Z,87.30
2019-05-21T21:29:36.440Z,87.00
2019-05-21T21:32:05.361Z,87.10
2019-05-21T21:34:33.831Z,87.40
2019-05-21T21:37:03.889Z,87.50
2019-05-21T21:39:32.707Z,87.50
2019-05-21T21:42:02.764Z,87.60
2019-05-21T21:44:34.086Z,87.60
2019-05-21T21:47:01.397Z,87.70
2019-05-21T21:49:31.022Z,87.90
2019-05-21T21:52:00.108Z,87.90
2019-05-21T21:54:31.688Z,87.80
2019-05-21T21:57:00.227Z,87.80
2019-05-21T21:59:28.744Z,87.90
2019-05-21T22:02:03.511Z,88.00
2019-05-21T22:04:36.308Z,88.00
2019-05-21T22:07:05.381Z,88.00
2019-05-21T22:09:34.765Z,87.90
2019-05-21T22:12:03.548Z,88.10
2019-05-21T22:14:32.441Z,88.20
2019-05-21T22:17:02.015Z,88.20
2019-05-21T22:19:31.770Z,88.20
2019-05-21T22:22:03.085Z,88.20
2019-05-21T22:24:31.531Z,88.30
2019-05-21T22:26:59.982Z,88.10
2019-05-21T22:29:28.440Z,88.10
2019-05-21T22:31:56.902Z,88.20
2019-05-21T22:34:25.888Z,88.30
2019-05-21T22:36:54.405Z,88.30
2019-05-21T22:39:27.338Z,88.50
2019-05-21T22:41:55.857Z,88.50
2019-05-21T22:44:24.391Z,88.50
2019-05-21T22:46:53.489Z,88.60
2019-05-21T22:49:21.967Z,88.80
2019-05-21T22:51:50.585Z,88.80
2019-05-21T22:54:19.112Z,88.90
2019-05-21T22:56:47.589Z,89.00
2019-05-21T22:59:16.100Z,89.10
2019-05-21T23:01:45.664Z,89.30
2019-05-21T23:04:14.183Z,89.30
2019-05-21T23:06:42.797Z,89.30
2019-05-21T23:09:11.382Z,89.20
2019-05-21T23:11:39.823Z,89.20
2019-05-21T23:14:08.278Z,89.00
2019-05-21T23:16:37.087Z,89.00
2019-05-21T23:19:06.755Z,88.80
2019-05-21T23:21:37.936Z,88.60
2019-05-21T23:24:09.571Z,88.70
2019-05-21T23:26:38.448Z,88.50
2019-05-21T23:29:07.734Z,88.50
2019-05-21T23:31:36.336Z,88.80
2019-05-21T23:34:05.156Z,88.80
2019-05-21T23:36:33.962Z,88.70
2019-05-21T23:39:05.186Z,88.80
2019-05-21T23:41:36.944Z,88.80
2019-05-21T23:44:05.951Z,88.90
2019-05-21T23:46:53.760Z,88.70
2019-05-21T23:49:22.326Z,88.80
2019-05-21T23:51:51.089Z,89.00
2019-05-21T23:54:19.747Z,89.00
2019-05-21T23:56:48.367Z,89.30
2019-05-21T23:59:17.159Z,88.70
